createdAt,value
2019-05-07T00:01:27.088Z,6.30
2019-05-07T00:03:57.476Z,6.90
2019-05-07T00:06:27.976Z,6.60
2019-05-07T00:08:58.529Z,6.20
2019-05-07T00:11:28.961Z,6.93
2019-05-07T00:13:59.518Z,6.30
2019-05-07T00:16:32.411Z,5.97
2019-05-07T00:19:02.190Z,6.17
2019-05-07T00:21:33.723Z,5.67
2019-05-07T00:24:04.395Z,6.17
2019-05-07T00:26:35.164Z,6.50
2019-05-07T00:29:05.690Z,6.10
2019-05-07T00:31:37.293Z,6.50
2019-05-07T00:34:07.788Z,8.17
2019-05-07T00:36:47.009Z,8.53
2019-05-07T00:39:30.076Z,8.70
2019-05-07T00:42:09.110Z,6.73
2019-05-07T00:44:56.912Z,7.53
2019-05-07T00:47:27.903Z,7.37
2019-05-07T00:50:03.293Z,7.60
2019-05-07T00:52:33.747Z,7.37
2019-05-07T00:55:04.882Z,7.97
2019-05-07T00:57:35.618Z,8.20
2019-05-07T01:00:06.963Z,8.73
2019-05-07T01:02:37.515Z,9.07
2019-05-07T01:05:08.552Z,8.77
2019-05-07T01:07:42.162Z,9.27
2019-05-07T01:10:14.253Z,7.60
2019-05-07T01:12:45.035Z,8.00
2019-05-07T01:15:27.962Z,7.83
2019-05-07T01:17:48.080Z,8.83
2019-05-07T01:20:18.805Z,6.90
2019-05-07T01:22:49.873Z,8.13
2019-05-07T01:25:22.052Z,7.73
2019-05-07T01:27:53.334Z,7.97
2019-05-07T01:30:24.465Z,7.60
2019-05-07T01:33:04.468Z,7.73
2019-05-07T01:35:54.389Z,7.20
2019-05-07T01:38:24.798Z,7.53
2019-05-07T01:40:55.442Z,7.37
2019-05-07T01:43:26.012Z,7.23
2019-05-07T01:45:56.618Z,7.53
2019-05-07T01:48:32.211Z,7.27
2019-05-07T01:51:03.399Z,7.73
2019-05-07T01:53:34.150Z,7.87
2019-05-07T01:56:04.691Z,6.93
2019-05-07T01:58:35.229Z,7.23
2019-05-07T02:01:05.888Z,6.87
2019-05-07T02:03:48.850Z,6.50
2019-05-07T02:06:29.075Z,7.23
2019-05-07T02:09:18.772Z,6.90
2019-05-07T02:12:08.310Z,6.80
2019-05-07T02:14:39.829Z,7.07
2019-05-07T02:17:10.389Z,7.30
2019-05-07T02:19:42.486Z,6.83
2019-05-07T02:22:13.463Z,7.03
2019-05-07T02:24:44.233Z,7.00
2019-05-07T02:27:14.855Z,5.90
2019-05-07T02:29:45.338Z,6.27
2019-05-07T02:32:16.048Z,8.13
2019-05-07T02:34:46.611Z,7.93
2019-05-07T02:37:23.244Z,7.83
2019-05-07T02:40:09.002Z,7.50
2019-05-07T02:42:39.569Z,7.93
2019-05-07T02:45:20.160Z,7.10
2019-05-07T02:47:52.535Z,7.10
2019-05-07T02:50:29.225Z,7.30
2019-05-07T02:53:09.443Z,6.73
2019-05-07T02:55:43.805Z,7.00
2019-05-07T02:58:14.519Z,6.93
2019-05-07T03:00:45.113Z,7.00
2019-05-07T03:03:15.720Z,7.57
2019-05-07T03:05:46.478Z,6.63
2019-05-07T03:08:17.145Z,7.37
2019-05-07T03:10:47.823Z,6.70
2019-05-07T03:13:18.393Z,6.60
2019-05-07T03:15:49.145Z,7.20
2019-05-07T03:18:19.771Z,7.13
2019-05-07T03:21:03.425Z,6.63
2019-05-07T03:23:42.920Z,6.77
2019-05-07T03:26:22.877Z,6.90
2019-05-07T03:28:55.413Z,7.13
2019-05-07T03:31:46.910Z,6.83
2019-05-07T03:34:37.351Z,6.77
2019-05-07T03:37:13.284Z,6.50
2019-05-07T03:39:43.221Z,6.53
2019-05-07T03:42:14.171Z,7.03
2019-05-07T03:44:56.559Z,7.43
2019-05-07T03:47:36.330Z,8.07
2019-05-07T03:50:14.243Z,7.67
2019-05-07T03:52:43.172Z,8.60
2019-05-07T03:55:14.960Z,10.93
2019-05-07T03:57:45.564Z,8.97
2019-05-07T04:00:17.154Z,8.43
2019-05-07T04:02:47.651Z,7.03
2019-05-07T04:05:18.693Z,7.27
2019-05-07T04:07:49.093Z,7.93
2019-05-07T04:10:22.949Z,7.67
2019-05-07T04:12:53.268Z,7.07
2019-05-07T04:15:24.306Z,6.90
2019-05-07T04:17:54.835Z,6.63
2019-05-07T04:20:25.549Z,6.63
2019-05-07T04:22:56.478Z,7.00
2019-05-07T04:25:34.780Z,7.07
2019-05-07T04:28:24.638Z,7.03
2019-05-07T04:30:56.742Z,6.30
2019-05-07T04:33:33.379Z,7.03
2019-05-07T04:36:14.097Z,7.13
2019-05-07T04:38:44.570Z,6.50
2019-05-07T04:41:15.181Z,5.63
2019-05-07T04:43:45.780Z,6.00
2019-05-07T04:46:16.331Z,6.10
2019-05-07T04:48:46.878Z,6.13
2019-05-07T04:51:23.276Z,5.13
2019-05-07T04:53:54.446Z,5.53
2019-05-07T04:56:25.286Z,5.17
2019-05-07T04:58:55.713Z,5.90
2019-05-07T05:01:27.941Z,5.37
2019-05-07T05:03:58.392Z,5.13
2019-05-07T05:06:29.622Z,5.23
2019-05-07T05:09:19.349Z,5.30
2019-05-07T05:11:52.910Z,4.70
2019-05-07T05:14:23.023Z,5.13
2019-05-07T05:16:53.829Z,5.30
2019-05-07T05:19:24.365Z,5.13
2019-05-07T05:22:08.093Z,5.43
2019-05-07T05:24:42.584Z,4.97
2019-05-07T05:27:13.407Z,5.00
2019-05-07T05:29:43.958Z,4.83
2019-05-07T05:32:14.580Z,5.13
2019-05-07T05:34:45.215Z,4.63
2019-05-07T05:37:16.771Z,5.03
2019-05-07T05:39:47.191Z,5.03
2019-05-07T05:42:27.867Z,4.87
2019-05-07T05:44:58.605Z,4.83
2019-05-07T05:47:29.330Z,5.10
2019-05-07T05:50:01.945Z,4.60
2019-05-07T05:52:39.421Z,4.33
2019-05-07T05:55:16.507Z,5.00
2019-05-07T05:57:54.531Z,4.80
2019-05-07T06:00:44.182Z,5.03
2019-05-07T06:03:33.961Z,5.10
2019-05-07T06:06:23.613Z,5.30
2019-05-07T06:09:12.882Z,5.73
2019-05-07T06:11:55.401Z,5.50
2019-05-07T06:14:45.285Z,6.20
2019-05-07T06:17:28.991Z,6.50
2019-05-07T06:20:12.215Z,5.50
2019-05-07T06:22:52.887Z,6.03
2019-05-07T06:25:24.934Z,7.00
2019-05-07T06:27:55.858Z,6.10
2019-05-07T06:30:26.435Z,5.73
2019-05-07T06:32:56.973Z,4.17
2019-05-07T06:35:27.636Z,4.30
2019-05-07T06:37:58.160Z,4.00
2019-05-07T06:40:35.218Z,4.43
2019-05-07T06:43:15.072Z,4.17
2019-05-07T06:45:51.744Z,4.60
2019-05-07T06:48:37.191Z,4.40
2019-05-07T06:50:57.602Z,4.20
2019-05-07T06:53:29.872Z,4.13
2019-05-07T06:56:02.880Z,3.60
2019-05-07T06:58:43.053Z,4.97
2019-05-07T07:01:32.903Z,4.53
2019-05-07T07:04:08.945Z,5.00
2019-05-07T07:06:58.722Z,5.63
2019-05-07T07:09:35.060Z,5.23
2019-05-07T07:12:09.502Z,4.20
2019-05-07T07:14:42.240Z,4.60
2019-05-07T07:17:13.019Z,4.33
2019-05-07T07:19:44.035Z,5.33
2019-05-07T07:22:16.080Z,4.13
2019-05-07T07:24:46.611Z,3.80
2019-05-07T07:27:17.689Z,4.33
2019-05-07T07:29:54.708Z,3.80
2019-05-07T07:32:32.390Z,3.73
2019-05-07T07:35:03.436Z,4.03
2019-05-07T07:37:38.332Z,4.20
2019-05-07T07:40:29.149Z,4.73
2019-05-07T07:42:59.804Z,4.27
2019-05-07T07:45:32.461Z,4.27
2019-05-07T07:48:03.013Z,4.33
2019-05-07T07:50:33.635Z,3.90
2019-05-07T07:53:04.589Z,4.00
2019-05-07T07:55:54.353Z,3.77
2019-05-07T07:58:36.779Z,4.10
2019-05-07T08:01:19.950Z,4.10
2019-05-07T08:03:52.253Z,3.87
2019-05-07T08:06:22.988Z,4.47
2019-05-07T08:08:54.034Z,4.67
2019-05-07T08:11:24.694Z,3.40
2019-05-07T08:13:55.388Z,4.17
2019-05-07T08:16:26.027Z,3.70
2019-05-07T08:18:56.780Z,2.97
2019-05-07T08:21:27.381Z,3.47
2019-05-07T08:23:58.003Z,3.00
2019-05-07T08:26:28.781Z,4.00
2019-05-07T08:28:59.616Z,3.90
2019-05-07T08:31:49.274Z,4.17
2019-05-07T08:34:28.111Z,4.23
2019-05-07T08:36:58.873Z,3.63
2019-05-07T08:39:29.690Z,3.77
2019-05-07T08:42:02.104Z,3.33
2019-05-07T08:44:42.984Z,3.80
2019-05-07T08:47:26.635Z,3.73
2019-05-07T08:49:57.296Z,2.57
2019-05-07T08:52:28.097Z,3.80
2019-05-07T08:54:58.664Z,3.00
2019-05-07T08:57:31.683Z,3.00
2019-05-07T09:00:04.617Z,3.73
2019-05-07T09:02:33.892Z,4.03
2019-05-07T09:05:05.129Z,3.20
2019-05-07T09:07:35.895Z,3.30
2019-05-07T09:10:07.253Z,3.57
2019-05-07T09:12:37.730Z,4.20
2019-05-07T09:15:08.412Z,3.87
2019-05-07T09:17:39.090Z,3.40
2019-05-07T09:20:09.854Z,3.70
2019-05-07T09:22:42.534Z,3.47
2019-05-07T09:25:13.209Z,2.03
2019-05-07T09:27:48.760Z,3.40
2019-05-07T09:30:28.577Z,3.00
2019-05-07T09:33:18.738Z,4.00
2019-05-07T09:35:52.867Z,3.00
2019-05-07T09:38:23.747Z,3.07
2019-05-07T09:40:56.891Z,2.83
2019-05-07T09:43:26.738Z,2.87
2019-05-07T09:45:57.349Z,3.27
2019-05-07T09:48:28.240Z,3.50
2019-05-07T09:50:58.891Z,3.50
2019-05-07T09:53:32.162Z,3.50
2019-05-07T09:56:03.069Z,3.43
2019-05-07T09:58:38.486Z,3.00
2019-05-07T10:01:05.943Z,3.93
2019-05-07T10:03:36.584Z,3.40
2019-05-07T10:06:08.611Z,3.10
2019-05-07T10:08:39.327Z,4.00
2019-05-07T10:11:12.219Z,3.17
2019-05-07T10:13:47.560Z,3.00
2019-05-07T10:16:24.217Z,4.13
2019-05-07T10:18:54.959Z,3.70
2019-05-07T10:21:25.850Z,4.20
2019-05-07T10:23:56.651Z,4.40
2019-05-07T10:26:27.296Z,3.93
2019-05-07T10:28:58.168Z,3.13
2019-05-07T10:31:29.368Z,3.67
2019-05-07T10:34:03.049Z,3.70
2019-05-07T10:36:33.838Z,3.80
2019-05-07T10:39:06.157Z,3.97
2019-05-07T10:41:38.154Z,3.60
2019-05-07T10:44:11.912Z,3.30
2019-05-07T10:47:02.101Z,4.23
2019-05-07T10:49:42.258Z,4.00
2019-05-07T10:52:13.078Z,3.97
2019-05-07T10:54:56.527Z,3.10
2019-05-07T10:57:16.373Z,3.43
2019-05-07T10:59:47.134Z,3.60
2019-05-07T11:02:25.739Z,3.80
2019-05-07T11:04:56.667Z,3.63
2019-05-07T11:07:27.327Z,4.00
2019-05-07T11:09:57.987Z,3.67
2019-05-07T11:12:28.622Z,3.70
2019-05-07T11:14:59.334Z,3.70
2019-05-07T11:17:41.800Z,3.37
2019-05-07T11:20:13.088Z,3.53
2019-05-07T11:22:43.808Z,2.77
2019-05-07T11:25:15.294Z,3.23
2019-05-07T11:27:45.848Z,3.50
2019-05-07T11:30:17.034Z,3.40
2019-05-07T11:32:47.738Z,3.80
2019-05-07T11:35:19.218Z,4.00
2019-05-07T11:37:51.858Z,3.50
2019-05-07T11:40:23.852Z,3.30
2019-05-07T11:43:13.505Z,3.50
2019-05-07T11:45:49.879Z,3.57
2019-05-07T11:48:22.131Z,3.20
2019-05-07T11:51:03.759Z,3.60
2019-05-07T11:53:32.732Z,3.97
2019-05-07T11:56:03.879Z,3.10
2019-05-07T11:58:34.459Z,3.30
2019-05-07T12:01:16.192Z,3.47
2019-05-07T12:03:58.699Z,3.90
2019-05-07T12:06:29.433Z,3.30
2019-05-07T12:09:00.186Z,4.03
2019-05-07T12:11:32.198Z,3.40
2019-05-07T12:14:02.870Z,2.90
2019-05-07T12:16:33.743Z,3.30
2019-05-07T12:19:05.274Z,3.27
2019-05-07T12:21:35.950Z,4.60
2019-05-07T12:24:06.617Z,3.40
2019-05-07T12:26:38.846Z,3.03
2019-05-07T12:29:11.643Z,2.83
2019-05-07T12:32:02.479Z,3.37
2019-05-07T12:34:37.589Z,2.80
2019-05-07T12:37:12.111Z,2.90
2019-05-07T12:39:42.416Z,3.33
2019-05-07T12:42:13.502Z,2.53
2019-05-07T12:44:44.494Z,2.80
2019-05-07T12:47:15.328Z,3.50
2019-05-07T12:49:45.953Z,3.10
2019-05-07T12:52:24.116Z,2.87
2019-05-07T12:55:03.247Z,2.53
2019-05-07T12:57:35.463Z,2.60
2019-05-07T13:00:26.539Z,2.67
2019-05-07T13:03:16.347Z,2.10
2019-05-07T13:05:47.034Z,2.87
2019-05-07T13:08:17.799Z,2.53
2019-05-07T13:10:48.383Z,2.67
2019-05-07T13:13:19.139Z,2.37
2019-05-07T13:15:51.670Z,2.40
2019-05-07T13:18:22.751Z,2.53
2019-05-07T13:20:53.598Z,2.30
2019-05-07T13:23:24.429Z,2.70
2019-05-07T13:25:55.065Z,2.50
2019-05-07T13:28:26.011Z,2.17
2019-05-07T13:30:56.719Z,3.10
2019-05-07T13:33:28.484Z,2.60
2019-05-07T13:35:59.432Z,2.40
2019-05-07T13:38:51.890Z,2.60
2019-05-07T13:41:41.628Z,2.10
2019-05-07T13:44:22.988Z,2.50
2019-05-07T13:47:13.053Z,3.03
2019-05-07T13:49:44.756Z,2.63
2019-05-07T13:52:16.242Z,2.60
2019-05-07T13:54:47.197Z,2.50
2019-05-07T13:57:17.818Z,2.40
2019-05-07T13:59:48.580Z,2.10
2019-05-07T14:02:19.694Z,2.00
2019-05-07T14:04:52.513Z,2.90
2019-05-07T14:07:23.197Z,2.80
2019-05-07T14:09:54.301Z,2.93
2019-05-07T14:12:25.118Z,2.47
2019-05-07T14:14:55.909Z,2.00
2019-05-07T14:17:26.537Z,2.40
2019-05-07T14:19:57.259Z,1.93
2019-05-07T14:22:27.902Z,3.10
2019-05-07T14:24:58.599Z,2.00
2019-05-07T14:27:29.285Z,2.23
2019-05-07T14:30:02.737Z,2.27
2019-05-07T14:32:52.672Z,1.97
2019-05-07T14:35:42.837Z,2.17
2019-05-07T14:38:22.690Z,2.50
2019-05-07T14:40:54.009Z,3.43
2019-05-07T14:43:32.417Z,2.20
2019-05-07T14:46:03.306Z,1.90
2019-05-07T14:48:36.178Z,2.63
2019-05-07T14:51:06.595Z,2.10
2019-05-07T14:53:37.163Z,2.00
2019-05-07T14:56:07.847Z,2.10
2019-05-07T14:58:38.706Z,2.07
2019-05-07T15:01:11.435Z,2.30
2019-05-07T15:03:42.422Z,2.53
2019-05-07T15:06:13.125Z,2.30
2019-05-07T15:08:44.223Z,2.03
2019-05-07T15:11:14.980Z,2.33
2019-05-07T15:13:45.599Z,2.20
2019-05-07T15:16:16.505Z,1.97
2019-05-07T15:18:54.561Z,3.57
2019-05-07T15:21:25.418Z,3.23
2019-05-07T15:23:57.386Z,7.50
2019-05-07T15:26:29.945Z,10.93
2019-05-07T15:29:12.063Z,3.40
2019-05-07T15:32:03.355Z,4.47
2019-05-07T15:34:34.249Z,4.47
2019-05-07T15:37:05.020Z,4.20
2019-05-07T15:39:35.721Z,3.00
2019-05-07T15:42:06.580Z,2.80
2019-05-07T15:44:37.277Z,2.93
2019-05-07T15:47:12.967Z,2.33
2019-05-07T15:49:43.547Z,2.57
2019-05-07T15:52:19.720Z,2.40
2019-05-07T15:54:52.103Z,2.10
2019-05-07T15:57:26.769Z,2.20
2019-05-07T16:00:06.957Z,2.30
2019-05-07T16:02:41.489Z,2.17
2019-05-07T16:05:12.643Z,2.50
2019-05-07T16:07:44.789Z,2.43
2019-05-07T16:10:15.748Z,2.43
2019-05-07T16:12:46.598Z,2.00
2019-05-07T16:15:17.590Z,2.30
2019-05-07T16:17:54.648Z,2.40
2019-05-07T16:20:25.249Z,2.30
2019-05-07T16:23:12.052Z,3.15
2019-05-07T16:25:33.264Z,3.92
2019-05-07T16:28:05.088Z,2.83
2019-05-07T16:30:38.656Z,2.70
2019-05-07T16:33:09.278Z,1.60
2019-05-07T16:35:39.882Z,2.20
2019-05-07T16:38:14.500Z,3.10
2019-05-07T16:40:43.980Z,1.95
2019-05-07T16:43:14.745Z,2.27
2019-05-07T16:45:46.560Z,2.52
2019-05-07T16:48:17.214Z,2.30
2019-05-07T16:50:47.943Z,2.62
2019-05-07T16:53:27.418Z,2.98
2019-05-07T16:55:52.259Z,2.47
2019-05-07T16:58:32.095Z,2.58
2019-05-07T17:01:06.535Z,2.42
2019-05-07T17:03:43.960Z,2.87
2019-05-07T17:06:14.664Z,2.27
2019-05-07T17:09:04.448Z,3.37
2019-05-07T17:11:36.556Z,3.47
2019-05-07T17:14:07.561Z,3.07
2019-05-07T17:16:38.132Z,2.57
2019-05-07T17:19:11.668Z,2.57
2019-05-07T17:21:43.059Z,2.97
2019-05-07T17:24:13.848Z,2.47
2019-05-07T17:26:44.442Z,3.00
2019-05-07T17:29:15.013Z,3.03
2019-05-07T17:31:45.458Z,2.77
2019-05-07T17:34:17.315Z,2.40
2019-05-07T17:36:47.969Z,3.17
2019-05-07T17:39:18.698Z,2.60
2019-05-07T17:41:51.730Z,2.67
2019-05-07T17:44:23.288Z,2.20
2019-05-07T17:46:54.026Z,2.83
2019-05-07T17:49:25.938Z,2.73
2019-05-07T17:51:56.759Z,2.53
2019-05-07T17:54:39.462Z,2.80
2019-05-07T17:57:10.064Z,2.77
2019-05-07T17:59:42.169Z,2.70
2019-05-07T18:02:21.876Z,3.07
2019-05-07T18:04:54.562Z,3.97
2019-05-07T18:07:24.413Z,4.00
2019-05-07T18:09:55.238Z,4.40
2019-05-07T18:12:25.867Z,5.03
2019-05-07T18:14:59.087Z,6.43
2019-05-07T18:17:44.951Z,8.00
2019-05-07T18:20:15.914Z,26.87
2019-05-07T18:22:46.737Z,67.57
2019-05-07T18:25:18.510Z,76.70
2019-05-07T18:27:49.527Z,34.97
2019-05-07T18:30:22.157Z,19.80
2019-05-07T18:32:58.559Z,17.03
2019-05-07T18:35:29.121Z,12.90
2019-05-07T18:37:59.575Z,16.00
2019-05-07T18:40:30.367Z,11.80
2019-05-07T18:43:03.090Z,12.23
2019-05-07T18:45:33.981Z,14.77
2019-05-07T18:48:05.017Z,11.43
2019-05-07T18:50:36.848Z,11.67
2019-05-07T18:53:12.195Z,11.00
2019-05-07T18:55:45.750Z,12.63
2019-05-07T18:58:18.730Z,19.77
2019-05-07T19:00:54.065Z,12.23
2019-05-07T19:03:26.432Z,12.57
2019-05-07T19:05:57.975Z,14.33
2019-05-07T19:08:28.928Z,24.47
2019-05-07T19:11:01.654Z,21.70
2019-05-07T19:13:35.764Z,19.87
2019-05-07T19:16:08.582Z,18.23
2019-05-07T19:18:40.190Z,10.10
2019-05-07T19:21:11.081Z,10.93
2019-05-07T19:23:42.469Z,13.13
2019-05-07T19:26:15.319Z,13.57
2019-05-07T19:28:46.917Z,12.90
2019-05-07T19:31:17.675Z,31.90
2019-05-07T19:33:52.542Z,16.10
2019-05-07T19:36:23.603Z,19.67
2019-05-07T19:38:54.307Z,13.20
2019-05-07T19:41:25.021Z,17.00
2019-05-07T19:43:55.691Z,21.03
2019-05-07T19:46:26.268Z,24.23
2019-05-07T19:48:56.685Z,23.90
2019-05-07T19:51:27.176Z,23.47
2019-05-07T19:53:57.774Z,19.27
2019-05-07T19:56:28.356Z,18.00
2019-05-07T19:58:58.843Z,19.03
2019-05-07T20:01:34.801Z,10.57
2019-05-07T20:04:05.337Z,13.17
2019-05-07T20:06:35.918Z,16.93
2019-05-07T20:09:12.454Z,18.13
2019-05-07T20:11:45.620Z,11.43
2019-05-07T20:14:16.340Z,11.23
2019-05-07T20:16:48.804Z,16.77
2019-05-07T20:19:19.381Z,12.03
2019-05-07T20:21:52.243Z,10.80
2019-05-07T20:24:22.258Z,12.40
2019-05-07T20:26:52.844Z,15.37
2019-05-07T20:29:24.660Z,20.80
2019-05-07T20:31:58.430Z,25.40
2019-05-07T20:34:29.006Z,25.70
2019-05-07T20:37:01.926Z,29.13
2019-05-07T20:39:32.368Z,32.73
2019-05-07T20:42:03.206Z,33.10
2019-05-07T20:44:33.979Z,28.47
2019-05-07T20:47:04.908Z,27.90
2019-05-07T20:49:35.736Z,23.53
2019-05-07T20:52:06.403Z,18.03
2019-05-07T20:54:50.312Z,23.20
2019-05-07T20:57:24.250Z,25.33
2019-05-07T20:59:54.860Z,20.27
2019-05-07T21:02:25.601Z,21.47
2019-05-07T21:04:57.963Z,21.73
2019-05-07T21:07:28.500Z,27.97
2019-05-07T21:10:02.105Z,22.40
2019-05-07T21:12:42.553Z,20.97
2019-05-07T21:15:13.078Z,22.83
2019-05-07T21:17:45.560Z,24.07
2019-05-07T21:20:16.297Z,19.60
2019-05-07T21:22:46.934Z,18.87
2019-05-07T21:25:17.563Z,18.87
2019-05-07T21:27:48.052Z,21.50
2019-05-07T21:30:18.728Z,25.57
2019-05-07T21:32:49.260Z,25.80
2019-05-07T21:35:22.260Z,23.57
2019-05-07T21:37:52.876Z,25.33
2019-05-07T21:40:23.387Z,24.30
2019-05-07T21:42:53.879Z,29.03
2019-05-07T21:45:24.761Z,28.70
2019-05-07T21:47:55.289Z,30.37
2019-05-07T21:50:25.918Z,30.77
2019-05-07T21:53:02.805Z,31.50
2019-05-07T21:55:59.898Z,32.40
2019-05-07T21:58:37.775Z,33.70
2019-05-07T22:01:27.270Z,33.20
2019-05-07T22:03:59.149Z,37.90
2019-05-07T22:06:29.680Z,33.63
2019-05-07T22:09:02.022Z,33.93
2019-05-07T22:11:33.659Z,31.47
2019-05-07T22:14:04.319Z,33.37
2019-05-07T22:16:34.776Z,31.60
2019-05-07T22:19:05.938Z,30.10
2019-05-07T22:21:36.383Z,28.90
2019-05-07T22:24:07.031Z,26.10
2019-05-07T22:26:37.578Z,27.60
2019-05-07T22:29:12.323Z,29.97
2019-05-07T22:32:02.727Z,29.43
2019-05-07T22:34:43.150Z,31.13
2019-05-07T22:37:15.322Z,27.47
2019-05-07T22:39:47.439Z,25.93
2019-05-07T22:42:19.649Z,31.97
2019-05-07T22:44:50.282Z,23.70
2019-05-07T22:47:22.628Z,26.80
2019-05-07T22:49:54.438Z,27.17
2019-05-07T22:52:25.175Z,28.47
2019-05-07T22:54:55.750Z,27.37
2019-05-07T22:57:36.642Z,27.80
2019-05-07T23:00:12.034Z,28.87
2019-05-07T23:02:43.297Z,28.53
2019-05-07T23:05:13.787Z,22.50
2019-05-07T23:07:44.417Z,29.80
2019-05-07T23:10:16.136Z,30.67
2019-05-07T23:12:46.711Z,27.03
2019-05-07T23:15:17.488Z,26.67
2019-05-07T23:17:48.192Z,30.67
2019-05-07T23:20:19.030Z,28.03
2019-05-07T23:22:49.591Z,28.53
2019-05-07T23:25:20.058Z,23.57
2019-05-07T23:27:52.503Z,24.33
2019-05-07T23:30:23.327Z,23.73
2019-05-07T23:32:53.960Z,34.47
2019-05-07T23:35:24.326Z,31.10
2019-05-07T23:37:54.911Z,20.93
2019-05-07T23:40:36.582Z,27.87
2019-05-07T23:43:08.332Z,29.57
2019-05-07T23:45:38.794Z,25.40
2019-05-07T23:48:09.239Z,22.57
2019-05-07T23:50:41.756Z,22.97
2019-05-07T23:53:12.940Z,23.33
2019-05-07T23:55:43.639Z,27.43
2019-05-07T23:58:14.268Z,26.80
